sensor_id;sensor_type;location;lat;lon;timestamp;P1;durP1;ratioP1;P2;durP2;ratioP2
62037;SDS011;47991;42.974;12.082;2023-04-30T00:02:02;9.60;;;4.50;;
62037;SDS011;47991;42.974;12.082;2023-04-30T00:04:28;11.10;;;4.80;;
62037;SDS011;47991;42.974;12.082;2023-04-30T00:06:54;8.60;;;4.40;;
62037;SDS011;47991;42.974;12.082;2023-04-30T00:09:21;11.10;;;5.30;;
62037;SDS011;47991;42.974;12.082;2023-04-30T00:11:47;9.00;;;4.50;;
62037;SDS011;47991;42.974;12.082;2023-04-30T00:14:13;8.40;;;4.70;;
62037;SDS011;47991;42.974;12.082;2023-04-30T03:25:52;11.90;;;6.80;;
62037;SDS011;47991;42.974;12.082;2023-04-30T03:28:19;11.40;;;6.80;;
62037;SDS011;47991;42.974;12.082;2023-04-30T03:30:46;11.00;;;6.80;;
62037;SDS011;47991;42.974;12.082;2023-04-30T03:33:12;13.50;;;7.30;;
62037;SDS011;47991;42.974;12.082;2023-04-30T03:35:38;11.30;;;6.90;;
62037;SDS011;47991;42.974;12.082;2023-04-30T03:38:05;10.70;;;6.50;;
62037;SDS011;47991;42.974;12.082;2023-04-30T03:40:31;12.30;;;6.70;;
62037;SDS011;47991;42.974;12.082;2023-04-30T03:42:57;11.50;;;6.10;;
62037;SDS011;47991;42.974;12.082;2023-04-30T03:45:23;10.80;;;6.60;;
62037;SDS011;47991;42.974;12.082;2023-04-30T03:47:49;12.40;;;6.90;;
62037;SDS011;47991;42.974;12.082;2023-04-30T03:50:17;11.80;;;6.50;;
62037;SDS011;47991;42.974;12.082;2023-04-30T03:52:44;12.80;;;6.70;;
62037;SDS011;47991;42.974;12.082;2023-04-30T03:55:10;11.50;;;7.20;;
62037;SDS011;47991;42.974;12.082;2023-04-30T03:57:37;12.50;;;7.80;;
62037;SDS011;47991;42.974;12.082;2023-04-30T04:00:09;12.70;;;6.50;;
62037;SDS011;47991;42.974;12.082;2023-04-30T04:02:38;11.10;;;7.50;;
62037;SDS011;47991;42.974;12.082;2023-04-30T04:05:05;11.20;;;6.60;;
62037;SDS011;47991;42.974;12.082;2023-04-30T04:07:32;9.90;;;6.40;;
62037;SDS011;47991;42.974;12.082;2023-04-30T04:09:58;11.80;;;6.50;;
62037;SDS011;47991;42.974;12.082;2023-04-30T04:12:25;9.70;;;5.40;;
62037;SDS011;47991;42.974;12.082;2023-04-30T04:14:51;10.30;;;6.00;;
62037;SDS011;47991;42.974;12.082;2023-04-30T04:17:18;8.90;;;5.60;;
62037;SDS011;47991;42.974;12.082;2023-04-30T04:19:44;11.10;;;6.80;;
62037;SDS011;47991;42.974;12.082;2023-04-30T04:22:10;10.90;;;6.70;;
62037;SDS011;47991;42.974;12.082;2023-04-30T04:24:36;11.60;;;6.40;;
62037;SDS011;47991;42.974;12.082;2023-04-30T04:27:03;11.30;;;6.50;;
62037;SDS011;47991;42.974;12.082;2023-04-30T04:29:30;13.30;;;6.20;;
62037;SDS011;47991;42.974;12.082;2023-04-30T04:31:56;12.30;;;7.00;;
62037;SDS011;47991;42.974;12.082;2023-04-30T04:34:25;10.60;;;6.60;;
62037;SDS011;47991;42.974;12.082;2023-04-30T04:36:51;11.10;;;6.80;;
62037;SDS011;47991;42.974;12.082;2023-04-30T04:39:17;10.10;;;6.10;;
62037;SDS011;47991;42.974;12.082;2023-04-30T04:41:43;9.80;;;5.60;;
62037;SDS011;47991;42.974;12.082;2023-04-30T04:44:10;9.60;;;6.00;;
62037;SDS011;47991;42.974;12.082;2023-04-30T04:46:36;11.50;;;6.80;;
62037;SDS011;47991;42.974;12.082;2023-04-30T04:49:06;10.20;;;6.30;;
62037;SDS011;47991;42.974;12.082;2023-04-30T04:51:32;9.70;;;6.00;;
62037;SDS011;47991;42.974;12.082;2023-04-30T04:53:59;10.00;;;6.70;;
62037;SDS011;47991;42.974;12.082;2023-04-30T04:56:25;10.70;;;6.40;;
62037;SDS011;47991;42.974;12.082;2023-04-30T04:58:52;10.80;;;7.00;;
62037;SDS011;47991;42.974;12.082;2023-04-30T05:01:18;10.10;;;6.60;;
62037;SDS011;47991;42.974;12.082;2023-04-30T05:03:44;11.90;;;7.00;;
62037;SDS011;47991;42.974;12.082;2023-04-30T05:06:10;11.10;;;6.70;;
62037;SDS011;47991;42.974;12.082;2023-04-30T05:08:36;13.20;;;7.20;;
62037;SDS011;47991;42.974;12.082;2023-04-30T05:11:03;11.60;;;6.10;;
62037;SDS011;47991;42.974;12.082;2023-04-30T05:13:29;10.40;;;6.50;;
62037;SDS011;47991;42.974;12.082;2023-04-30T05:15:55;16.10;;;6.90;;
62037;SDS011;47991;42.974;12.082;2023-04-30T05:18:21;10.40;;;6.50;;
62037;SDS011;47991;42.974;12.082;2023-04-30T05:20:47;12.30;;;6.70;;
62037;SDS011;47991;42.974;12.082;2023-04-30T05:23:14;11.40;;;6.60;;
62037;SDS011;47991;42.974;12.082;2023-04-30T06:41:23;10.80;;;5.10;;
62037;SDS011;47991;42.974;12.082;2023-04-30T06:43:50;9.70;;;5.60;;
62037;SDS011;47991;42.974;12.082;2023-04-30T06:46:16;10.40;;;4.60;;
62037;SDS011;47991;42.974;12.082;2023-04-30T06:48:42;9.20;;;4.00;;
62037;SDS011;47991;42.974;12.082;2023-04-30T06:51:09;9.20;;;4.80;;
62037;SDS011;47991;42.974;12.082;2023-04-30T06:53:54;9.20;;;4.80;;
62037;SDS011;47991;42.974;12.082;2023-04-30T06:56:21;7.20;;;4.20;;
62037;SDS011;47991;42.974;12.082;2023-04-30T06:58:48;8.40;;;5.20;;
62037;SDS011;47991;42.974;12.082;2023-04-30T07:01:15;7.10;;;3.70;;
62037;SDS011;47991;42.974;12.082;2023-04-30T07:03:54;8.60;;;3.50;;
62037;SDS011;47991;42.974;12.082;2023-04-30T07:06:29;9.20;;;3.50;;
62037;SDS011;47991;42.974;12.082;2023-04-30T07:08:59;7.80;;;3.60;;
62037;SDS011;47991;42.974;12.082;2023-04-30T07:11:43;7.30;;;3.80;;
62037;SDS011;47991;42.974;12.082;2023-04-30T07:14:12;7.70;;;3.60;;
62037;SDS011;47991;42.974;12.082;2023-04-30T07:16:38;12.20;;;4.00;;
62037;SDS011;47991;42.974;12.082;2023-04-30T07:19:05;8.90;;;4.10;;
62037;SDS011;47991;42.974;12.082;2023-04-30T07:21:32;8.00;;;3.80;;
62037;SDS011;47991;42.974;12.082;2023-04-30T07:23:58;7.80;;;3.50;;
62037;SDS011;47991;42.974;12.082;2023-04-30T07:26:24;8.10;;;3.50;;
62037;SDS011;47991;42.974;12.082;2023-04-30T07:28:54;8.30;;;3.70;;
62037;SDS011;47991;42.974;12.082;2023-04-30T07:31:25;6.00;;;3.00;;
62037;SDS011;47991;42.974;12.082;2023-04-30T07:34:01;7.80;;;3.10;;
62037;SDS011;47991;42.974;12.082;2023-04-30T07:36:27;6.20;;;3.40;;
62037;SDS011;47991;42.974;12.082;2023-04-30T07:38:54;6.80;;;3.30;;
62037;SDS011;47991;42.974;12.082;2023-04-30T07:41:20;6.30;;;3.10;;
62037;SDS011;47991;42.974;12.082;2023-04-30T07:43:47;6.50;;;3.00;;
62037;SDS011;47991;42.974;12.082;2023-04-30T07:46:15;8.40;;;3.00;;
62037;SDS011;47991;42.974;12.082;2023-04-30T07:48:41;7.90;;;3.60;;
62037;SDS011;47991;42.974;12.082;2023-04-30T07:51:07;7.00;;;3.40;;
62037;SDS011;47991;42.974;12.082;2023-04-30T07:53:34;7.20;;;3.40;;
62037;SDS011;47991;42.974;12.082;2023-04-30T07:56:04;6.30;;;3.00;;
62037;SDS011;47991;42.974;12.082;2023-04-30T07:58:30;6.80;;;3.10;;
62037;SDS011;47991;42.974;12.082;2023-04-30T08:01:14;7.70;;;3.10;;
62037;SDS011;47991;42.974;12.082;2023-04-30T08:03:46;7.40;;;2.70;;
62037;SDS011;47991;42.974;12.082;2023-04-30T08:06:28;6.10;;;3.10;;
62037;SDS011;47991;42.974;12.082;2023-04-30T08:08:55;6.60;;;3.10;;
62037;SDS011;47991;42.974;12.082;2023-04-30T08:11:21;8.10;;;3.10;;
62037;SDS011;47991;42.974;12.082;2023-04-30T08:13:50;4.90;;;2.50;;
62037;SDS011;47991;42.974;12.082;2023-04-30T08:16:16;5.60;;;2.50;;
62037;SDS011;47991;42.974;12.082;2023-04-30T08:18:44;6.20;;;2.70;;
62037;SDS011;47991;42.974;12.082;2023-04-30T08:21:16;6.20;;;3.00;;
62037;SDS011;47991;42.974;12.082;2023-04-30T08:23:46;6.30;;;3.10;;
62037;SDS011;47991;42.974;12.082;2023-04-30T08:26:13;5.90;;;2.20;;
62037;SDS011;47991;42.974;12.082;2023-04-30T08:28:46;5.80;;;2.60;;
62037;SDS011;47991;42.974;12.082;2023-04-30T08:31:12;6.40;;;2.60;;
62037;SDS011;47991;42.974;12.082;2023-04-30T08:33:40;7.30;;;2.90;;
62037;SDS011;47991;42.974;12.082;2023-04-30T08:36:06;7.60;;;2.90;;
62037;SDS011;47991;42.974;12.082;2023-04-30T08:38:32;7.10;;;2.90;;
62037;SDS011;47991;42.974;12.082;2023-04-30T08:41:08;6.20;;;2.60;;
62037;SDS011;47991;42.974;12.082;2023-04-30T08:43:38;5.20;;;2.80;;
62037;SDS011;47991;42.974;12.082;2023-04-30T08:46:05;6.00;;;2.70;;
62037;SDS011;47991;42.974;12.082;2023-04-30T08:48:38;6.50;;;2.50;;
62037;SDS011;47991;42.974;12.082;2023-04-30T08:51:06;4.80;;;2.50;;
62037;SDS011;47991;42.974;12.082;2023-04-30T08:53:34;7.70;;;2.50;;
62037;SDS011;47991;42.974;12.082;2023-04-30T08:56:03;4.60;;;2.40;;
62037;SDS011;47991;42.974;12.082;2023-04-30T08:58:29;4.40;;;2.10;;
62037;SDS011;47991;42.974;12.082;2023-04-30T09:00:57;6.20;;;2.10;;
62037;SDS011;47991;42.974;12.082;2023-04-30T09:03:27;5.90;;;2.30;;
62037;SDS011;47991;42.974;12.082;2023-04-30T09:05:59;4.30;;;2.10;;
62037;SDS011;47991;42.974;12.082;2023-04-30T09:08:49;4.60;;;2.30;;
62037;SDS011;47991;42.974;12.082;2023-04-30T09:11:30;4.00;;;2.20;;
62037;SDS011;47991;42.974;12.082;2023-04-30T09:13:57;4.80;;;2.20;;
62037;SDS011;47991;42.974;12.082;2023-04-30T09:16:29;4.40;;;2.10;;
62037;SDS011;47991;42.974;12.082;2023-04-30T09:19:23;3.20;;;2.00;;
62037;SDS011;47991;42.974;12.082;2023-04-30T09:21:53;5.70;;;2.30;;
62037;SDS011;47991;42.974;12.082;2023-04-30T09:24:20;5.10;;;1.90;;
62037;SDS011;47991;42.974;12.082;2023-04-30T09:26:46;4.80;;;2.00;;
62037;SDS011;47991;42.974;12.082;2023-04-30T09:29:17;5.50;;;2.10;;
62037;SDS011;47991;42.974;12.082;2023-04-30T09:31:44;4.60;;;2.20;;
62037;SDS011;47991;42.974;12.082;2023-04-30T09:34:12;4.00;;;2.20;;
62037;SDS011;47991;42.974;12.082;2023-04-30T09:36:54;4.90;;;2.00;;
62037;SDS011;47991;42.974;12.082;2023-04-30T09:39:24;3.80;;;2.20;;
62037;SDS011;47991;42.974;12.082;2023-04-30T09:41:50;4.20;;;2.20;;
62037;SDS011;47991;42.974;12.082;2023-04-30T09:44:27;5.20;;;2.20;;
62037;SDS011;47991;42.974;12.082;2023-04-30T09:46:54;4.60;;;1.90;;
62037;SDS011;47991;42.974;12.082;2023-04-30T09:49:22;3.50;;;1.80;;
62037;SDS011;47991;42.974;12.082;2023-04-30T09:52:01;4.90;;;2.20;;
62037;SDS011;47991;42.974;12.082;2023-04-30T09:54:27;4.80;;;2.10;;
62037;SDS011;47991;42.974;12.082;2023-04-30T09:56:56;3.90;;;2.00;;
62037;SDS011;47991;42.974;12.082;2023-04-30T09:59:33;2.80;;;1.60;;
62037;SDS011;47991;42.974;12.082;2023-04-30T10:02:05;4.70;;;1.90;;
62037;SDS011;47991;42.974;12.082;2023-04-30T10:49:04;4.40;;;1.90;;
62037;SDS011;47991;42.974;12.082;2023-04-30T10:51:45;5.40;;;2.20;;
62037;SDS011;47991;42.974;12.082;2023-04-30T10:54:21;6.30;;;1.90;;
62037;SDS011;47991;42.974;12.082;2023-04-30T10:56:52;6.40;;;2.40;;
62037;SDS011;47991;42.974;12.082;2023-04-30T10:59:21;4.30;;;2.30;;
62037;SDS011;47991;42.974;12.082;2023-04-30T11:01:58;6.40;;;2.50;;
62037;SDS011;47991;42.974;12.082;2023-04-30T11:04:26;5.60;;;2.20;;
62037;SDS011;47991;42.974;12.082;2023-04-30T11:07:08;2.60;;;1.80;;
62037;SDS011;47991;42.974;12.082;2023-04-30T11:12:04;4.10;;;1.90;;
62037;SDS011;47991;42.974;12.082;2023-04-30T11:14:39;4.10;;;2.00;;
62037;SDS011;47991;42.974;12.082;2023-04-30T11:17:25;5.70;;;2.50;;
62037;SDS011;47991;42.974;12.082;2023-04-30T11:19:52;6.60;;;2.80;;
62037;SDS011;47991;42.974;12.082;2023-04-30T11:22:23;4.00;;;2.00;;
62037;SDS011;47991;42.974;12.082;2023-04-30T11:24:52;3.70;;;1.70;;
62037;SDS011;47991;42.974;12.082;2023-04-30T11:27:26;5.00;;;2.10;;
62037;SDS011;47991;42.974;12.082;2023-04-30T11:29:59;3.50;;;1.80;;
62037;SDS011;47991;42.974;12.082;2023-04-30T11:32:35;5.60;;;2.30;;
62037;SDS011;47991;42.974;12.082;2023-04-30T11:35:06;6.30;;;1.90;;
62037;SDS011;47991;42.974;12.082;2023-04-30T11:37:33;4.00;;;1.80;;
62037;SDS011;47991;42.974;12.082;2023-04-30T11:40:03;4.10;;;2.30;;
62037;SDS011;47991;42.974;12.082;2023-04-30T11:42:41;4.10;;;1.80;;
62037;SDS011;47991;42.974;12.082;2023-04-30T11:45:15;5.50;;;2.00;;
62037;SDS011;47991;42.974;12.082;2023-04-30T11:47:43;4.20;;;1.80;;
62037;SDS011;47991;42.974;12.082;2023-04-30T11:50:15;4.80;;;1.80;;
62037;SDS011;47991;42.974;12.082;2023-04-30T11:52:48;6.60;;;2.00;;
62037;SDS011;47991;42.974;12.082;2023-04-30T11:55:19;5.60;;;2.80;;
62037;SDS011;47991;42.974;12.082;2023-04-30T11:57:50;4.60;;;2.40;;
62037;SDS011;47991;42.974;12.082;2023-04-30T12:00:24;6.00;;;2.70;;
62037;SDS011;47991;42.974;12.082;2023-04-30T12:02:58;5.00;;;2.40;;
62037;SDS011;47991;42.974;12.082;2023-04-30T12:05:28;4.60;;;2.40;;
62037;SDS011;47991;42.974;12.082;2023-04-30T12:07:56;5.50;;;2.40;;
62037;SDS011;47991;42.974;12.082;2023-04-30T12:10:31;4.80;;;2.30;;
62037;SDS011;47991;42.974;12.082;2023-04-30T12:13:02;5.40;;;2.90;;
62037;SDS011;47991;42.974;12.082;2023-04-30T12:15:29;5.60;;;3.00;;
62037;SDS011;47991;42.974;12.082;2023-04-30T12:18:10;6.40;;;2.60;;
62037;SDS011;47991;42.974;12.082;2023-04-30T12:20:42;6.30;;;2.60;;
62037;SDS011;47991;42.974;12.082;2023-04-30T12:23:18;6.80;;;2.60;;
62037;SDS011;47991;42.974;12.082;2023-04-30T12:25:51;6.80;;;2.60;;
62037;SDS011;47991;42.974;12.082;2023-04-30T12:28:28;8.10;;;2.70;;
62037;SDS011;47991;42.974;12.082;2023-04-30T12:31:08;8.20;;;2.90;;
62037;SDS011;47991;42.974;12.082;2023-04-30T12:33:43;6.90;;;2.90;;
62037;SDS011;47991;42.974;12.082;2023-04-30T12:36:18;6.70;;;2.50;;
62037;SDS011;47991;42.974;12.082;2023-04-30T12:38:47;8.90;;;2.90;;
62037;SDS011;47991;42.974;12.082;2023-04-30T12:41:14;8.50;;;3.10;;
62037;SDS011;47991;42.974;12.082;2023-04-30T12:44:11;9.60;;;4.70;;
62037;SDS011;47991;42.974;12.082;2023-04-30T21:58:57;8.70;;;4.20;;
62037;SDS011;47991;42.974;12.082;2023-04-30T22:01:26;7.50;;;3.60;;
62037;SDS011;47991;42.974;12.082;2023-04-30T22:03:55;9.70;;;3.70;;
62037;SDS011;47991;42.974;12.082;2023-04-30T22:06:30;8.70;;;4.00;;
62037;SDS011;47991;42.974;12.082;2023-04-30T22:09:02;7.60;;;3.50;;
62037;SDS011;47991;42.974;12.082;2023-04-30T22:11:51;7.20;;;3.60;;
62037;SDS011;47991;42.974;12.082;2023-04-30T22:14:21;8.60;;;3.30;;
62037;SDS011;47991;42.974;12.082;2023-04-30T22:16:54;8.60;;;4.00;;
62037;SDS011;47991;42.974;12.082;2023-04-30T22:19:22;8.60;;;3.80;;
62037;SDS011;47991;42.974;12.082;2023-04-30T22:22:01;7.40;;;3.60;;
62037;SDS011;47991;42.974;12.082;2023-04-30T22:24:28;8.80;;;3.40;;
62037;SDS011;47991;42.974;12.082;2023-04-30T22:27:22;7.30;;;3.30;;
62037;SDS011;47991;42.974;12.082;2023-04-30T22:29:49;8.50;;;3.90;;
62037;SDS011;47991;42.974;12.082;2023-04-30T22:32:22;7.40;;;3.50;;
62037;SDS011;47991;42.974;12.082;2023-04-30T22:35:08;5.60;;;3.00;;
62037;SDS011;47991;42.974;12.082;2023-04-30T22:37:45;7.50;;;3.40;;
62037;SDS011;47991;42.974;12.082;2023-04-30T22:43:17;7.20;;;3.60;;
62037;SDS011;47991;42.974;12.082;2023-04-30T22:46:02;9.10;;;3.60;;
62037;SDS011;47991;42.974;12.082;2023-04-30T22:48:44;6.90;;;3.70;;
62037;SDS011;47991;42.974;12.082;2023-04-30T22:51:12;10.20;;;3.70;;
62037;SDS011;47991;42.974;12.082;2023-04-30T22:53:43;8.80;;;3.30;;
62037;SDS011;47991;42.974;12.082;2023-04-30T22:56:23;7.80;;;3.50;;
62037;SDS011;47991;42.974;12.082;2023-04-30T22:58:54;6.90;;;3.10;;
62037;SDS011;47991;42.974;12.082;2023-04-30T23:01:39;8.20;;;3.50;;
62037;SDS011;47991;42.974;12.082;2023-04-30T23:04:05;8.10;;;3.60;;
62037;SDS011;47991;42.974;12.082;2023-04-30T23:09:58;6.30;;;3.30;;
62037;SDS011;47991;42.974;12.082;2023-04-30T23:12:35;7.10;;;3.20;;
62037;SDS011;47991;42.974;12.082;2023-04-30T23:15:05;7.50;;;3.40;;
62037;SDS011;47991;42.974;12.082;2023-04-30T23:17:33;8.80;;;3.70;;
62037;SDS011;47991;42.974;12.082;2023-04-30T23:20:11;8.50;;;3.20;;
62037;SDS011;47991;42.974;12.082;2023-04-30T23:22:41;6.20;;;3.10;;
62037;SDS011;47991;42.974;12.082;2023-04-30T23:25:31;6.10;;;3.40;;
62037;SDS011;47991;42.974;12.082;2023-04-30T23:28:25;7.30;;;3.60;;
62037;SDS011;47991;42.974;12.082;2023-04-30T23:30:58;6.50;;;3.30;;
62037;SDS011;47991;42.974;12.082;2023-04-30T23:36:30;6.10;;;3.10;;
62037;SDS011;47991;42.974;12.082;2023-04-30T23:39:03;5.30;;;3.10;;
62037;SDS011;47991;42.974;12.082;2023-04-30T23:41:50;7.30;;;3.30;;
62037;SDS011;47991;42.974;12.082;2023-04-30T23:44:22;6.50;;;3.20;;
62037;SDS011;47991;42.974;12.082;2023-04-30T23:46:55;6.30;;;2.80;;
62037;SDS011;47991;42.974;12.082;2023-04-30T23:50:03;5.70;;;2.90;;
62037;SDS011;47991;42.974;12.082;2023-04-30T23:53:03;5.40;;;2.80;;
62037;SDS011;47991;42.974;12.082;2023-04-30T23:55:55;6.70;;;3.40;;
